createdAt,value
2018-12-30T00:01:35.014Z,6.23
2018-12-30T00:04:05.533Z,5.57
2018-12-30T00:06:36.989Z,6.00
2018-12-30T00:09:08.042Z,5.67
2018-12-30T00:11:39.378Z,5.93
2018-12-30T00:14:10.202Z,6.00
2018-12-30T00:16:41.081Z,5.87
2018-12-30T00:19:11.997Z,6.13
2018-12-30T00:21:42.732Z,5.90
2018-12-30T00:24:13.387Z,5.80
2018-12-30T00:26:45.205Z,5.60
2018-12-30T00:29:15.778Z,5.33
2018-12-30T00:31:47.332Z,5.57
2018-12-30T00:34:18.291Z,5.87
2018-12-30T00:36:49.320Z,5.17
2018-12-30T00:39:20.837Z,5.27
2018-12-30T00:41:52.277Z,5.70
2018-12-30T00:44:23.763Z,5.60
2018-12-30T00:46:54.500Z,5.80
2018-12-30T00:49:25.682Z,5.40
2018-12-30T00:51:57.165Z,5.50
2018-12-30T00:54:28.190Z,5.40
2018-12-30T00:56:59.142Z,5.47
2018-12-30T00:59:30.718Z,5.63
2018-12-30T01:02:02.658Z,5.70
2018-12-30T01:04:34.790Z,5.43
2018-12-30T01:07:07.090Z,5.20
2018-12-30T01:09:38.267Z,5.40
2018-12-30T01:12:09.537Z,5.30
2018-12-30T01:14:40.873Z,5.40
2018-12-30T01:17:12.023Z,5.40
2018-12-30T01:19:43.430Z,5.00
2018-12-30T01:22:14.602Z,5.13
2018-12-30T01:24:46.363Z,5.50
2018-12-30T01:27:17.506Z,5.07
2018-12-30T01:29:48.575Z,5.03
2018-12-30T01:32:19.862Z,5.20
2018-12-30T01:34:51.418Z,5.10
2018-12-30T01:37:22.725Z,5.10
2018-12-30T01:39:54.314Z,5.30
2018-12-30T01:42:25.719Z,4.90
2018-12-30T01:44:56.930Z,4.93
2018-12-30T01:47:29.594Z,5.03
2018-12-30T01:50:00.842Z,5.00
2018-12-30T01:52:31.774Z,5.10
2018-12-30T01:55:02.630Z,4.67
2018-12-30T01:57:33.794Z,5.03
2018-12-30T02:00:05.585Z,5.07
2018-12-30T02:02:37.683Z,4.90
2018-12-30T02:05:08.534Z,4.57
2018-12-30T02:07:39.253Z,4.67
2018-12-30T02:10:10.494Z,4.47
2018-12-30T02:12:40.959Z,4.90
2018-12-30T02:15:11.906Z,4.90
2018-12-30T02:17:42.296Z,4.60
2018-12-30T02:20:13.842Z,4.87
2018-12-30T02:22:44.272Z,4.60
2018-12-30T02:25:15.522Z,4.77
2018-12-30T02:27:46.709Z,4.80
2018-12-30T02:30:17.805Z,4.30
2018-12-30T02:32:49.282Z,4.90
2018-12-30T02:35:20.714Z,4.97
2018-12-30T02:37:52.278Z,5.07
2018-12-30T02:40:23.319Z,5.00
2018-12-30T02:42:55.064Z,5.00
2018-12-30T02:45:26.102Z,4.93
2018-12-30T02:47:57.364Z,4.67
2018-12-30T02:50:29.102Z,4.83
2018-12-30T02:53:00.705Z,4.63
2018-12-30T02:55:32.002Z,4.70
2018-12-30T02:58:03.459Z,4.60
2018-12-30T03:00:34.638Z,4.77
2018-12-30T03:03:05.677Z,4.93
2018-12-30T03:05:38.114Z,4.83
2018-12-30T03:08:09.270Z,4.80
2018-12-30T03:10:40.716Z,4.53
2018-12-30T03:13:11.962Z,4.70
2018-12-30T03:15:43.136Z,4.70
2018-12-30T03:18:14.457Z,4.70
2018-12-30T03:20:45.633Z,4.63
2018-12-30T03:23:16.641Z,4.90
2018-12-30T03:25:47.445Z,4.53
2018-12-30T03:28:18.007Z,4.57
2018-12-30T03:30:48.936Z,4.73
2018-12-30T03:33:19.371Z,4.70
2018-12-30T03:35:50.190Z,4.63
2018-12-30T03:38:21.615Z,4.67
2018-12-30T03:40:52.914Z,4.47
2018-12-30T03:43:24.004Z,4.87
2018-12-30T03:45:55.203Z,4.90
2018-12-30T03:48:26.942Z,4.80
2018-12-30T03:50:58.110Z,4.53
2018-12-30T03:53:29.230Z,4.70
2018-12-30T03:56:00.410Z,4.70
2018-12-30T03:58:31.367Z,4.63
2018-12-30T04:01:02.971Z,5.20
2018-12-30T04:03:34.726Z,4.90
2018-12-30T04:06:05.890Z,4.50
2018-12-30T04:08:36.705Z,4.30
2018-12-30T04:11:07.851Z,4.70
2018-12-30T04:13:39.614Z,4.60
2018-12-30T04:16:10.757Z,4.70
2018-12-30T04:18:41.314Z,4.77
2018-12-30T04:21:11.892Z,4.70
2018-12-30T04:23:42.482Z,4.67
2018-12-30T04:26:13.350Z,5.10
2018-12-30T04:28:44.013Z,4.70
2018-12-30T04:31:14.714Z,4.30
2018-12-30T04:33:45.349Z,4.50
2018-12-30T04:36:16.214Z,4.60
2018-12-30T04:38:47.394Z,4.83
2018-12-30T04:41:18.520Z,4.53
2018-12-30T04:43:49.680Z,4.83
2018-12-30T04:46:20.791Z,4.60
2018-12-30T04:48:52.046Z,4.30
2018-12-30T04:51:23.385Z,4.60
2018-12-30T04:53:54.507Z,4.37
2018-12-30T04:56:25.399Z,4.57
2018-12-30T04:58:56.809Z,4.97
2018-12-30T05:01:27.962Z,4.53
2018-12-30T05:03:59.029Z,4.80
2018-12-30T05:06:30.282Z,4.80
2018-12-30T05:09:01.414Z,4.40
2018-12-30T05:11:32.562Z,4.50
2018-12-30T05:14:03.268Z,4.53
2018-12-30T05:16:34.515Z,4.60
2018-12-30T05:19:04.945Z,4.57
2018-12-30T05:21:35.990Z,4.50
2018-12-30T05:24:06.372Z,4.37
2018-12-30T05:26:37.704Z,4.53
2018-12-30T05:29:08.290Z,4.73
2018-12-30T05:31:39.536Z,4.93
2018-12-30T05:34:09.962Z,4.80
2018-12-30T05:36:41.518Z,4.77
2018-12-30T05:39:12.358Z,4.80
2018-12-30T05:41:43.535Z,4.47
2018-12-30T05:44:14.465Z,4.60
2018-12-30T05:46:45.782Z,4.67
2018-12-30T05:49:17.237Z,4.33
2018-12-30T05:51:48.412Z,4.90
2018-12-30T05:54:21.053Z,4.40
2018-12-30T05:56:52.628Z,4.47
2018-12-30T05:59:23.573Z,4.60
2018-12-30T06:01:54.800Z,4.40
2018-12-30T06:04:25.214Z,4.70
2018-12-30T06:06:56.361Z,4.53
2018-12-30T06:09:26.726Z,4.20
2018-12-30T06:11:57.679Z,4.50
2018-12-30T06:14:28.210Z,4.70
2018-12-30T06:16:59.501Z,4.57
2018-12-30T06:19:29.933Z,5.13
2018-12-30T06:22:01.170Z,4.53
2018-12-30T06:24:31.577Z,4.10
2018-12-30T06:27:02.567Z,4.57
2018-12-30T06:29:33.244Z,4.10
2018-12-30T06:32:04.522Z,4.30
2018-12-30T06:34:34.977Z,4.60
2018-12-30T06:37:05.893Z,4.10
2018-12-30T06:39:36.884Z,4.47
2018-12-30T06:42:08.196Z,4.57
2018-12-30T06:44:39.623Z,4.47
2018-12-30T06:47:10.954Z,4.40
2018-12-30T06:49:41.918Z,4.30
2018-12-30T06:52:13.372Z,4.17
2018-12-30T06:54:44.562Z,4.30
2018-12-30T06:57:14.941Z,4.83
2018-12-30T06:59:45.634Z,4.10
2018-12-30T07:02:15.989Z,4.53
2018-12-30T07:04:46.930Z,4.40
2018-12-30T07:07:17.355Z,4.53
2018-12-30T07:09:48.015Z,4.30
2018-12-30T07:12:18.414Z,4.40
2018-12-30T07:14:49.119Z,4.20
2018-12-30T07:17:19.470Z,4.30
2018-12-30T07:19:50.650Z,4.60
2018-12-30T07:22:21.149Z,4.60
2018-12-30T07:24:51.852Z,4.47
2018-12-30T07:27:22.448Z,4.50
2018-12-30T07:29:53.688Z,3.90
2018-12-30T07:32:24.154Z,4.53
2018-12-30T07:34:54.833Z,4.23
2018-12-30T07:37:25.230Z,4.50
2018-12-30T07:39:56.482Z,4.60
2018-12-30T07:42:27.902Z,4.07
2018-12-30T07:44:59.082Z,4.20
2018-12-30T07:47:31.145Z,4.10
2018-12-30T07:50:02.370Z,4.00
2018-12-30T07:52:33.437Z,3.90
2018-12-30T07:55:04.889Z,4.13
2018-12-30T07:57:36.352Z,3.93
2018-12-30T08:00:07.817Z,3.77
2018-12-30T08:02:38.934Z,4.03
2018-12-30T08:05:10.384Z,4.40
2018-12-30T08:07:41.525Z,4.40
2018-12-30T08:10:12.659Z,4.20
2018-12-30T08:12:44.122Z,4.43
2018-12-30T08:15:15.569Z,3.77
2018-12-30T08:17:47.065Z,4.10
2018-12-30T08:20:18.166Z,4.10
2018-12-30T08:22:49.613Z,4.00
2018-12-30T08:25:21.158Z,3.97
2018-12-30T08:27:52.526Z,3.90
2018-12-30T08:30:25.007Z,4.20
2018-12-30T08:32:56.417Z,4.10
2018-12-30T08:35:27.722Z,4.00
2018-12-30T08:37:58.590Z,3.90
2018-12-30T08:40:29.809Z,4.30
2018-12-30T08:43:00.870Z,3.77
2018-12-30T08:45:31.949Z,3.83
2018-12-30T08:48:02.930Z,3.87
2018-12-30T08:50:34.378Z,3.93
2018-12-30T08:53:05.185Z,4.10
2018-12-30T08:55:36.644Z,3.97
2018-12-30T08:58:07.902Z,4.20
2018-12-30T09:00:39.114Z,3.97
2018-12-30T09:03:11.005Z,4.13
2018-12-30T09:05:42.130Z,4.27
2018-12-30T09:08:13.275Z,4.10
2018-12-30T09:10:44.313Z,3.87
2018-12-30T09:13:15.328Z,3.83
2018-12-30T09:15:46.716Z,4.00
2018-12-30T09:18:18.310Z,3.90
2018-12-30T09:20:50.208Z,4.00
2018-12-30T09:23:21.399Z,4.10
2018-12-30T09:25:52.550Z,3.90
2018-12-30T09:28:23.977Z,3.60
2018-12-30T09:30:54.825Z,4.00
2018-12-30T09:33:25.963Z,4.10
2018-12-30T09:35:56.999Z,4.30
2018-12-30T09:38:28.427Z,3.90
2018-12-30T09:40:59.701Z,4.10
2018-12-30T09:43:30.551Z,3.90
2018-12-30T09:46:01.622Z,3.77
2018-12-30T09:48:33.957Z,4.20
2018-12-30T09:51:05.179Z,4.20
2018-12-30T09:53:36.321Z,4.00
2018-12-30T09:56:07.214Z,4.10
2018-12-30T09:58:38.623Z,4.03
2018-12-30T10:01:09.628Z,3.80
2018-12-30T10:03:40.618Z,4.20
2018-12-30T10:06:11.738Z,4.00
2018-12-30T10:08:42.217Z,4.00
2018-12-30T10:11:12.790Z,3.70
2018-12-30T10:13:43.585Z,3.83
2018-12-30T10:16:14.053Z,3.90
2018-12-30T10:18:44.682Z,3.90
2018-12-30T10:21:14.975Z,3.80
2018-12-30T10:23:52.757Z,4.07
2018-12-30T10:26:18.448Z,4.20
2018-12-30T10:28:48.818Z,3.90
2018-12-30T10:31:19.422Z,4.00
2018-12-30T10:33:49.842Z,3.87
2018-12-30T10:36:20.123Z,3.70
2018-12-30T10:38:50.679Z,3.63
2018-12-30T10:41:21.613Z,3.73
2018-12-30T10:43:52.602Z,4.20
2018-12-30T10:46:23.901Z,4.00
2018-12-30T10:48:55.033Z,4.07
2018-12-30T10:51:26.381Z,3.90
2018-12-30T10:54:00.686Z,4.10
2018-12-30T10:56:30.324Z,3.73
2018-12-30T10:59:01.798Z,3.70
2018-12-30T11:01:32.780Z,4.00
2018-12-30T11:04:04.352Z,3.67
2018-12-30T11:06:35.186Z,4.10
2018-12-30T11:09:08.555Z,4.00
2018-12-30T11:11:40.345Z,3.80
2018-12-30T11:14:11.386Z,4.07
2018-12-30T11:16:42.535Z,4.00
2018-12-30T11:19:13.675Z,3.70
2018-12-30T11:21:44.117Z,3.90
2018-12-30T11:24:15.341Z,4.10
2018-12-30T11:26:47.616Z,4.20
2018-12-30T11:29:19.166Z,3.77
2018-12-30T11:31:50.604Z,4.00
2018-12-30T11:34:21.758Z,3.83
2018-12-30T11:36:52.920Z,3.90
2018-12-30T11:39:24.406Z,3.80
2018-12-30T11:41:56.127Z,4.00
2018-12-30T11:44:26.877Z,3.80
2018-12-30T11:46:58.100Z,3.90
2018-12-30T11:49:28.521Z,3.70
2018-12-30T11:51:59.212Z,3.53
2018-12-30T11:54:29.659Z,3.87
2018-12-30T11:57:00.553Z,3.90
2018-12-30T11:59:30.998Z,3.60
2018-12-30T12:02:01.896Z,3.77
2018-12-30T12:04:32.323Z,3.70
2018-12-30T12:07:04.174Z,3.50
2018-12-30T12:09:36.897Z,3.80
2018-12-30T12:12:08.342Z,3.73
2018-12-30T12:14:39.426Z,3.80
2018-12-30T12:17:12.035Z,3.70
2018-12-30T12:19:42.996Z,3.70
2018-12-30T12:22:13.730Z,3.90
2018-12-30T12:24:49.390Z,3.80
2018-12-30T12:27:20.606Z,3.87
2018-12-30T12:29:52.842Z,3.40
2018-12-30T12:32:24.070Z,3.77
2018-12-30T12:34:55.282Z,3.87
2018-12-30T12:37:26.578Z,3.70
2018-12-30T12:39:57.727Z,3.60
2018-12-30T12:42:29.090Z,3.60
2018-12-30T12:45:00.775Z,3.67
2018-12-30T12:47:31.920Z,3.27
2018-12-30T12:50:02.730Z,3.70
2018-12-30T12:52:34.010Z,3.77
2018-12-30T12:55:06.041Z,3.77
2018-12-30T12:57:37.526Z,3.60
2018-12-30T13:00:11.372Z,3.57
2018-12-30T13:02:43.773Z,3.70
2018-12-30T13:05:14.511Z,3.80
2018-12-30T13:07:45.490Z,3.40
2018-12-30T13:10:15.920Z,3.20
2018-12-30T13:12:46.843Z,3.67
2018-12-30T13:15:17.249Z,3.60
2018-12-30T13:17:48.176Z,3.67
2018-12-30T13:20:18.666Z,3.33
2018-12-30T13:22:49.306Z,3.50
2018-12-30T13:25:20.866Z,3.70
2018-12-30T13:27:52.130Z,3.47
2018-12-30T13:30:22.807Z,3.60
2018-12-30T13:32:53.814Z,3.40
2018-12-30T13:35:24.267Z,3.50
2018-12-30T13:37:54.969Z,3.70
2018-12-30T13:40:25.350Z,3.70
2018-12-30T13:42:56.070Z,3.70
2018-12-30T13:45:27.279Z,3.37
2018-12-30T13:47:58.446Z,3.43
2018-12-30T13:50:30.698Z,3.50
2018-12-30T13:53:01.731Z,3.53
2018-12-30T13:55:32.297Z,3.60
2018-12-30T13:58:03.434Z,4.00
2018-12-30T14:00:33.834Z,3.53
2018-12-30T14:03:04.703Z,3.40
2018-12-30T14:05:37.435Z,3.87
2018-12-30T14:08:08.601Z,3.80
2018-12-30T14:10:39.153Z,3.40
2018-12-30T14:13:09.992Z,3.70
2018-12-30T14:15:40.388Z,3.70
2018-12-30T14:18:11.632Z,3.83
2018-12-30T14:20:42.071Z,3.67
2018-12-30T14:23:12.936Z,3.90
2018-12-30T14:25:43.538Z,4.13
2018-12-30T14:28:14.570Z,3.97
2018-12-30T14:30:44.994Z,4.03
2018-12-30T14:33:19.302Z,3.70
2018-12-30T14:35:49.751Z,3.90
2018-12-30T14:38:20.395Z,4.13
2018-12-30T14:40:50.794Z,4.00
2018-12-30T14:43:21.813Z,3.90
2018-12-30T14:45:54.981Z,4.27
2018-12-30T14:48:26.477Z,4.03
2018-12-30T14:50:57.681Z,4.07
2018-12-30T14:53:28.983Z,3.77
2018-12-30T14:56:00.525Z,4.00
2018-12-30T14:58:32.008Z,4.17
2018-12-30T15:01:03.115Z,4.23
2018-12-30T15:03:34.875Z,3.93
2018-12-30T15:06:06.330Z,3.90
2018-12-30T15:08:37.777Z,4.10
2018-12-30T15:11:09.562Z,3.70
2018-12-30T15:13:40.982Z,4.23
2018-12-30T15:16:11.822Z,4.60
2018-12-30T15:18:43.886Z,3.97
2018-12-30T15:21:14.754Z,4.30
2018-12-30T15:23:46.484Z,4.50
2018-12-30T15:26:17.642Z,4.57
2018-12-30T15:28:49.011Z,4.10
2018-12-30T15:31:20.250Z,4.40
2018-12-30T15:33:51.672Z,4.30
2018-12-30T15:36:23.432Z,3.97
2018-12-30T15:38:54.571Z,4.13
2018-12-30T15:41:26.018Z,4.57
2018-12-30T15:43:57.261Z,4.30
2018-12-30T15:46:28.932Z,4.47
2018-12-30T15:49:00.070Z,4.33
2018-12-30T15:51:31.859Z,4.50
2018-12-30T15:54:02.971Z,4.70
2018-12-30T15:56:34.175Z,4.57
2018-12-30T15:59:05.293Z,4.20
2018-12-30T16:01:36.465Z,4.60
2018-12-30T16:04:07.563Z,4.67
2018-12-30T16:06:38.720Z,4.27
2018-12-30T16:09:09.865Z,4.60
2018-12-30T16:11:41.322Z,4.17
2018-12-30T16:14:12.262Z,4.37
2018-12-30T16:16:43.291Z,4.40
2018-12-30T16:19:14.450Z,4.40
2018-12-30T16:21:45.862Z,4.80
2018-12-30T16:24:16.754Z,5.10
2018-12-30T16:26:47.835Z,4.47
2018-12-30T16:29:19.591Z,5.07
2018-12-30T16:31:51.051Z,4.93
2018-12-30T16:34:22.231Z,4.87
2018-12-30T16:36:53.381Z,4.80
2018-12-30T16:39:24.183Z,4.90
2018-12-30T16:41:57.949Z,4.63
2018-12-30T16:44:29.253Z,4.80
2018-12-30T16:47:02.010Z,4.90
2018-12-30T16:49:33.661Z,5.13
2018-12-30T16:52:04.800Z,4.73
2018-12-30T16:54:35.607Z,5.20
2018-12-30T16:57:06.330Z,4.80
2018-12-30T16:59:37.170Z,5.20
2018-12-30T17:02:07.938Z,5.37
2018-12-30T17:04:38.567Z,4.80
2018-12-30T17:07:09.239Z,5.10
2018-12-30T17:09:40.211Z,5.17
2018-12-30T17:12:10.882Z,5.30
2018-12-30T17:14:41.579Z,5.10
2018-12-30T17:17:11.942Z,5.30
2018-12-30T17:19:42.953Z,5.20
2018-12-30T17:22:13.589Z,5.10
2018-12-30T17:24:44.927Z,5.40
2018-12-30T17:27:15.590Z,5.13
2018-12-30T17:29:46.606Z,5.37
2018-12-30T17:32:17.267Z,5.47
2018-12-30T17:34:47.989Z,5.47
2018-12-30T17:37:18.937Z,5.03
2018-12-30T17:39:49.632Z,5.30
2018-12-30T17:42:20.307Z,5.40
2018-12-30T17:44:51.115Z,4.97
2018-12-30T17:47:22.146Z,5.40
2018-12-30T17:49:53.154Z,4.90
2018-12-30T17:52:24.242Z,5.13
2018-12-30T17:54:55.135Z,5.43
2018-12-30T17:57:26.960Z,5.77
2018-12-30T17:59:58.190Z,5.20
2018-12-30T18:02:29.624Z,5.47
2018-12-30T18:05:00.731Z,5.80
2018-12-30T18:07:32.129Z,5.80
2018-12-30T18:10:03.292Z,5.50
2018-12-30T18:12:34.977Z,5.27
2018-12-30T18:15:06.719Z,5.37
2018-12-30T18:17:41.356Z,5.60
2018-12-30T18:20:10.851Z,5.43
2018-12-30T18:22:42.165Z,5.57
2018-12-30T18:25:13.741Z,5.50
2018-12-30T18:27:45.227Z,5.27
2018-12-30T18:30:16.618Z,5.30
2018-12-30T18:32:47.833Z,5.13
2018-12-30T18:35:19.635Z,5.70
2018-12-30T18:37:51.162Z,5.43
2018-12-30T18:40:22.067Z,5.13
2018-12-30T18:42:53.626Z,5.30
2018-12-30T18:45:24.783Z,5.23
2018-12-30T18:47:55.889Z,5.10
2018-12-30T18:50:28.859Z,5.00
2018-12-30T18:52:59.742Z,5.27
2018-12-30T18:55:31.146Z,4.90
2018-12-30T18:58:02.603Z,5.10
2018-12-30T19:00:33.440Z,5.07
2018-12-30T19:03:04.821Z,4.97
2018-12-30T19:05:36.043Z,5.00
2018-12-30T19:08:07.485Z,5.13
2018-12-30T19:10:38.360Z,5.20
2018-12-30T19:13:09.461Z,4.87
2018-12-30T19:15:40.617Z,4.87
2018-12-30T19:18:11.795Z,4.87
2018-12-30T19:20:43.430Z,4.70
2018-12-30T19:23:14.954Z,4.80
2018-12-30T19:25:47.368Z,4.80
2018-12-30T19:28:19.554Z,4.37
2018-12-30T19:30:50.999Z,4.70
2018-12-30T19:33:22.825Z,4.70
2018-12-30T19:35:55.413Z,4.40
2018-12-30T19:38:26.772Z,4.60
2018-12-30T19:40:59.336Z,4.40
2018-12-30T19:43:30.564Z,4.50
2018-12-30T19:46:03.942Z,4.33
2018-12-30T19:48:34.722Z,4.20
2018-12-30T19:51:09.297Z,4.30
2018-12-30T19:53:40.677Z,4.23
2018-12-30T19:56:12.109Z,4.30
2018-12-30T19:58:43.703Z,4.63
2018-12-30T20:01:16.336Z,4.10
2018-12-30T20:03:48.865Z,4.03
2018-12-30T20:06:20.362Z,4.07
2018-12-30T20:08:52.800Z,4.30
2018-12-30T20:11:23.867Z,4.00
2018-12-30T20:13:55.139Z,4.00
2018-12-30T20:16:26.627Z,4.10
2018-12-30T20:18:57.584Z,3.80
2018-12-30T20:21:29.265Z,4.00
2018-12-30T20:24:00.473Z,3.80
2018-12-30T20:26:31.699Z,4.10
2018-12-30T20:29:02.818Z,4.13
2018-12-30T20:31:34.068Z,3.80
2018-12-30T20:34:05.476Z,3.77
2018-12-30T20:36:36.921Z,3.70
2018-12-30T20:39:09.637Z,3.60
2018-12-30T20:41:42.583Z,3.50
2018-12-30T20:44:22.410Z,3.60
2018-12-30T20:46:53.670Z,3.50
2018-12-30T20:49:25.293Z,3.53
2018-12-30T20:51:56.644Z,3.40
2018-12-30T20:54:27.861Z,3.50
2018-12-30T20:56:59.120Z,3.60
2018-12-30T20:59:30.289Z,3.20
2018-12-30T21:02:01.401Z,3.33
2018-12-30T21:04:32.593Z,3.40
2018-12-30T21:07:03.735Z,3.40
2018-12-30T21:09:35.433Z,3.33
2018-12-30T21:12:07.313Z,3.47
2018-12-30T21:14:38.693Z,3.37
2018-12-30T21:17:10.700Z,3.20
2018-12-30T21:19:42.422Z,3.23
2018-12-30T21:22:14.097Z,3.33
2018-12-30T21:24:46.258Z,2.97
2018-12-30T21:27:17.798Z,3.20
2018-12-30T21:29:49.211Z,3.20
2018-12-30T21:32:19.974Z,2.80
2018-12-30T21:34:50.578Z,3.30
2018-12-30T21:37:21.694Z,3.10
2018-12-30T21:39:52.128Z,3.00
2018-12-30T21:42:23.175Z,2.87
2018-12-30T21:44:53.573Z,3.07
2018-12-30T21:47:24.235Z,2.77
2018-12-30T21:49:55.350Z,3.10
2018-12-30T21:52:26.114Z,2.90
2018-12-30T21:54:56.857Z,2.70
2018-12-30T21:57:28.369Z,2.70
2018-12-30T21:59:59.518Z,2.83
2018-12-30T22:02:30.646Z,2.83
2018-12-30T22:05:02.368Z,2.73
2018-12-30T22:07:33.545Z,2.63
2018-12-30T22:10:05.537Z,2.77
2018-12-30T22:12:39.164Z,2.60
2018-12-30T22:15:10.526Z,2.57
2018-12-30T22:17:41.334Z,2.60
2018-12-30T22:20:12.796Z,2.73
2018-12-30T22:22:43.357Z,2.60
2018-12-30T22:25:14.178Z,2.57
2018-12-30T22:27:44.927Z,2.77
2018-12-30T22:30:16.187Z,2.60
2018-12-30T22:32:46.656Z,2.47
2018-12-30T22:35:17.553Z,2.33
2018-12-30T22:37:47.942Z,2.70
2018-12-30T22:40:19.003Z,2.37
2018-12-30T22:42:49.887Z,2.27
2018-12-30T22:45:21.126Z,2.60
2018-12-30T22:47:52.123Z,2.30
2018-12-30T22:50:23.052Z,2.60
2018-12-30T22:52:57.247Z,2.30
2018-12-30T22:55:28.452Z,2.50
2018-12-30T22:57:59.645Z,2.30
2018-12-30T23:00:48.819Z,2.10
2018-12-30T23:03:22.232Z,2.27
2018-12-30T23:05:53.435Z,2.30
2018-12-30T23:08:24.613Z,2.20
2018-12-30T23:10:56.150Z,2.20
2018-12-30T23:13:28.627Z,2.40
2018-12-30T23:15:59.898Z,2.30
2018-12-30T23:18:31.016Z,2.20
2018-12-30T23:21:02.462Z,2.10
2018-12-30T23:23:34.340Z,2.20
2018-12-30T23:26:05.574Z,2.03
2018-12-30T23:28:36.417Z,2.00
2018-12-30T23:31:07.787Z,2.20
2018-12-30T23:33:39.058Z,2.00
2018-12-30T23:36:10.454Z,2.17
2018-12-30T23:38:41.650Z,2.10
2018-12-30T23:41:13.045Z,2.00
2018-12-30T23:43:44.194Z,2.10
2018-12-30T23:46:15.343Z,2.10
2018-12-30T23:48:46.517Z,2.00
2018-12-30T23:51:17.626Z,2.00
2018-12-30T23:53:49.705Z,2.00
2018-12-30T23:56:22.167Z,2.00
2018-12-30T23:58:53.927Z,2.00
